Aviation Digital Data Service (ADDS)

Output produced by METARs form (0153 UTC 25 February 2018)
found at http://aviationweather.gov/adds/metars/
 
KMHT 242320Z 2500/2524 36006KT P6SM FEW100 
     FM251000 02007KT P6SM BKN050 OVC100 
     FM251200 04008KT 2SM -SN BKN015 OVC025 
     FM251600 05008KT 1SM -FZRAPL OVC007 
     FM251900 08008KT 2SM -RA OVC007 
     FM252300 34006KT P6SM SCT025